sensor_id;sensor_type;location;lat;lon;timestamp;P1;durP1;ratioP1;P2;durP2;ratioP2
20306;SDS011;10312;52.434;13.206;2023-02-03T00:00:49;10.32;;;3.53;;
20306;SDS011;10312;52.434;13.206;2023-02-03T00:03:16;10.00;;;3.45;;
20306;SDS011;10312;52.434;13.206;2023-02-03T00:05:45;10.35;;;3.25;;
20306;SDS011;10312;52.434;13.206;2023-02-03T00:08:12;9.85;;;2.78;;
20306;SDS011;10312;52.434;13.206;2023-02-03T00:10:40;8.93;;;2.83;;
20306;SDS011;10312;52.434;13.206;2023-02-03T00:13:07;11.25;;;2.85;;
20306;SDS011;10312;52.434;13.206;2023-02-03T00:15:34;12.02;;;3.20;;
20306;SDS011;10312;52.434;13.206;2023-02-03T00:18:01;11.65;;;3.38;;
20306;SDS011;10312;52.434;13.206;2023-02-03T00:20:27;12.00;;;3.33;;
20306;SDS011;10312;52.434;13.206;2023-02-03T00:23:01;15.43;;;3.03;;
20306;SDS011;10312;52.434;13.206;2023-02-03T00:25:31;11.38;;;3.00;;
20306;SDS011;10312;52.434;13.206;2023-02-03T00:27:58;10.55;;;2.83;;
20306;SDS011;10312;52.434;13.206;2023-02-03T00:30:25;12.88;;;3.08;;
20306;SDS011;10312;52.434;13.206;2023-02-03T00:32:52;13.32;;;3.80;;
20306;SDS011;10312;52.434;13.206;2023-02-03T00:35:19;9.35;;;2.92;;
20306;SDS011;10312;52.434;13.206;2023-02-03T00:37:49;16.25;;;3.42;;
20306;SDS011;10312;52.434;13.206;2023-02-03T00:40:17;12.60;;;3.22;;
20306;SDS011;10312;52.434;13.206;2023-02-03T00:42:45;12.25;;;3.20;;
20306;SDS011;10312;52.434;13.206;2023-02-03T00:45:12;8.02;;;3.30;;
20306;SDS011;10312;52.434;13.206;2023-02-03T00:47:38;7.65;;;3.10;;
20306;SDS011;10312;52.434;13.206;2023-02-03T00:50:05;10.45;;;2.78;;
20306;SDS011;10312;52.434;13.206;2023-02-03T00:52:33;10.43;;;3.10;;
20306;SDS011;10312;52.434;13.206;2023-02-03T00:55:00;13.65;;;3.83;;
20306;SDS011;10312;52.434;13.206;2023-02-03T00:57:27;11.57;;;3.70;;
20306;SDS011;10312;52.434;13.206;2023-02-03T00:59:53;8.30;;;3.20;;
20306;SDS011;10312;52.434;13.206;2023-02-03T01:02:21;11.50;;;3.47;;
20306;SDS011;10312;52.434;13.206;2023-02-03T01:04:47;15.05;;;4.05;;
20306;SDS011;10312;52.434;13.206;2023-02-03T01:07:14;14.25;;;3.45;;
20306;SDS011;10312;52.434;13.206;2023-02-03T01:09:41;8.45;;;3.22;;
20306;SDS011;10312;52.434;13.206;2023-02-03T01:12:09;10.50;;;3.95;;
20306;SDS011;10312;52.434;13.206;2023-02-03T01:14:35;12.43;;;4.00;;
20306;SDS011;10312;52.434;13.206;2023-02-03T01:17:02;13.27;;;4.25;;
20306;SDS011;10312;52.434;13.206;2023-02-03T01:19:29;13.68;;;4.38;;
20306;SDS011;10312;52.434;13.206;2023-02-03T01:21:56;18.20;;;5.15;;
20306;SDS011;10312;52.434;13.206;2023-02-03T01:24:23;11.93;;;5.22;;
20306;SDS011;10312;52.434;13.206;2023-02-03T01:26:50;11.05;;;5.45;;
20306;SDS011;10312;52.434;13.206;2023-02-03T01:29:17;10.82;;;4.30;;
20306;SDS011;10312;52.434;13.206;2023-02-03T01:31:43;16.15;;;5.78;;
20306;SDS011;10312;52.434;13.206;2023-02-03T01:34:11;10.20;;;4.57;;
20306;SDS011;10312;52.434;13.206;2023-02-03T01:36:39;12.10;;;4.72;;
20306;SDS011;10312;52.434;13.206;2023-02-03T01:39:05;12.30;;;5.53;;
20306;SDS011;10312;52.434;13.206;2023-02-03T01:41:34;12.18;;;4.93;;
20306;SDS011;10312;52.434;13.206;2023-02-03T01:44:33;15.25;;;5.00;;
20306;SDS011;10312;52.434;13.206;2023-02-03T01:47:05;12.65;;;4.55;;
20306;SDS011;10312;52.434;13.206;2023-02-03T01:49:43;13.13;;;5.10;;
20306;SDS011;10312;52.434;13.206;2023-02-03T01:52:12;10.93;;;4.50;;
20306;SDS011;10312;52.434;13.206;2023-02-03T01:54:40;11.13;;;4.97;;
20306;SDS011;10312;52.434;13.206;2023-02-03T01:57:12;9.55;;;5.75;;
20306;SDS011;10312;52.434;13.206;2023-02-03T01:59:46;10.25;;;5.72;;
20306;SDS011;10312;52.434;13.206;2023-02-03T02:02:13;11.30;;;4.70;;
20306;SDS011;10312;52.434;13.206;2023-02-03T02:04:57;9.30;;;4.05;;
20306;SDS011;10312;52.434;13.206;2023-02-03T02:07:30;9.95;;;4.65;;
20306;SDS011;10312;52.434;13.206;2023-02-03T02:09:57;14.77;;;4.32;;
20306;SDS011;10312;52.434;13.206;2023-02-03T02:12:23;7.28;;;3.95;;
20306;SDS011;10312;52.434;13.206;2023-02-03T02:14:50;9.80;;;3.97;;
20306;SDS011;10312;52.434;13.206;2023-02-03T02:17:25;6.47;;;3.30;;
20306;SDS011;10312;52.434;13.206;2023-02-03T02:20:23;8.80;;;3.75;;
20306;SDS011;10312;52.434;13.206;2023-02-03T02:25:43;6.13;;;3.13;;
20306;SDS011;10312;52.434;13.206;2023-02-03T02:28:32;7.25;;;3.33;;
20306;SDS011;10312;52.434;13.206;2023-02-03T02:33:58;8.57;;;3.47;;
20306;SDS011;10312;52.434;13.206;2023-02-03T02:39:37;4.93;;;3.28;;
20306;SDS011;10312;52.434;13.206;2023-02-03T02:42:22;7.38;;;3.80;;
20306;SDS011;10312;52.434;13.206;2023-02-03T02:45:02;6.65;;;4.10;;
20306;SDS011;10312;52.434;13.206;2023-02-03T02:47:35;7.10;;;3.72;;
20306;SDS011;10312;52.434;13.206;2023-02-03T02:50:12;6.72;;;3.90;;
20306;SDS011;10312;52.434;13.206;2023-02-03T02:52:41;7.53;;;3.45;;
20306;SDS011;10312;52.434;13.206;2023-02-03T02:55:14;4.75;;;3.30;;
20306;SDS011;10312;52.434;13.206;2023-02-03T02:57:46;5.95;;;3.45;;
20306;SDS011;10312;52.434;13.206;2023-02-03T03:00:16;7.32;;;3.85;;
20306;SDS011;10312;52.434;13.206;2023-02-03T03:02:52;6.80;;;3.15;;
20306;SDS011;10312;52.434;13.206;2023-02-03T03:05:20;5.25;;;3.05;;
20306;SDS011;10312;52.434;13.206;2023-02-03T03:07:51;5.78;;;2.63;;
20306;SDS011;10312;52.434;13.206;2023-02-03T03:10:23;4.82;;;2.67;;
20306;SDS011;10312;52.434;13.206;2023-02-03T03:12:54;4.13;;;2.30;;
20306;SDS011;10312;52.434;13.206;2023-02-03T03:15:24;4.32;;;2.50;;
20306;SDS011;10312;52.434;13.206;2023-02-03T03:17:58;3.35;;;2.08;;
20306;SDS011;10312;52.434;13.206;2023-02-03T03:20:28;3.55;;;2.00;;
20306;SDS011;10312;52.434;13.206;2023-02-03T03:22:58;5.95;;;1.90;;
20306;SDS011;10312;52.434;13.206;2023-02-03T03:25:39;4.75;;;2.03;;
20306;SDS011;10312;52.434;13.206;2023-02-03T03:28:10;6.43;;;1.88;;
20306;SDS011;10312;52.434;13.206;2023-02-03T03:30:41;3.95;;;1.80;;
20306;SDS011;10312;52.434;13.206;2023-02-03T03:33:09;3.00;;;2.20;;
20306;SDS011;10312;52.434;13.206;2023-02-03T03:35:37;3.15;;;2.10;;
20306;SDS011;10312;52.434;13.206;2023-02-03T03:38:35;4.25;;;2.22;;
20306;SDS011;10312;52.434;13.206;2023-02-03T03:41:19;4.97;;;2.17;;
20306;SDS011;10312;52.434;13.206;2023-02-03T03:43:52;2.80;;;1.95;;
20306;SDS011;10312;52.434;13.206;2023-02-03T03:46:26;2.60;;;2.03;;
20306;SDS011;10312;52.434;13.206;2023-02-03T03:48:56;3.25;;;2.30;;
20306;SDS011;10312;52.434;13.206;2023-02-03T03:51:27;2.90;;;2.20;;
20306;SDS011;10312;52.434;13.206;2023-02-03T03:53:57;7.40;;;2.33;;
20306;SDS011;10312;52.434;13.206;2023-02-03T03:56:28;4.93;;;2.30;;
20306;SDS011;10312;52.434;13.206;2023-02-03T03:58:57;3.75;;;2.45;;
20306;SDS011;10312;52.434;13.206;2023-02-03T04:01:25;5.40;;;2.60;;
20306;SDS011;10312;52.434;13.206;2023-02-03T04:03:57;5.47;;;2.42;;
20306;SDS011;10312;52.434;13.206;2023-02-03T04:06:25;3.95;;;2.78;;
20306;SDS011;10312;52.434;13.206;2023-02-03T04:08:52;4.75;;;2.97;;
20306;SDS011;10312;52.434;13.206;2023-02-03T04:11:19;4.22;;;3.10;;
20306;SDS011;10312;52.434;13.206;2023-02-03T04:14:04;5.22;;;3.58;;
20306;SDS011;10312;52.434;13.206;2023-02-03T04:16:31;4.93;;;3.47;;
20306;SDS011;10312;52.434;13.206;2023-02-03T04:18:57;7.40;;;3.58;;
20306;SDS011;10312;52.434;13.206;2023-02-03T04:21:24;6.38;;;4.65;;
20306;SDS011;10312;52.434;13.206;2023-02-03T04:23:51;7.07;;;4.80;;
20306;SDS011;10312;52.434;13.206;2023-02-03T04:26:17;8.35;;;5.00;;
20306;SDS011;10312;52.434;13.206;2023-02-03T04:28:44;10.20;;;6.13;;
20306;SDS011;10312;52.434;13.206;2023-02-03T04:31:11;8.23;;;5.70;;
20306;SDS011;10312;52.434;13.206;2023-02-03T04:33:41;8.13;;;5.80;;
20306;SDS011;10312;52.434;13.206;2023-02-03T04:36:08;12.80;;;7.25;;
20306;SDS011;10312;52.434;13.206;2023-02-03T04:38:34;9.70;;;6.45;;
20306;SDS011;10312;52.434;13.206;2023-02-03T04:41:01;12.20;;;7.88;;
20306;SDS011;10312;52.434;13.206;2023-02-03T04:43:28;12.98;;;8.25;;
20306;SDS011;10312;52.434;13.206;2023-02-03T04:45:55;13.07;;;8.25;;
20306;SDS011;10312;52.434;13.206;2023-02-03T04:48:21;17.83;;;10.13;;
20306;SDS011;10312;52.434;13.206;2023-02-03T04:50:48;17.25;;;10.30;;
20306;SDS011;10312;52.434;13.206;2023-02-03T04:53:15;20.42;;;11.70;;
20306;SDS011;10312;52.434;13.206;2023-02-03T04:55:44;22.65;;;12.10;;
20306;SDS011;10312;52.434;13.206;2023-02-03T04:58:12;22.20;;;12.90;;
20306;SDS011;10312;52.434;13.206;2023-02-03T05:00:38;24.30;;;12.68;;
20306;SDS011;10312;52.434;13.206;2023-02-03T05:03:05;22.27;;;12.60;;
20306;SDS011;10312;52.434;13.206;2023-02-03T05:05:32;23.42;;;13.10;;
20306;SDS011;10312;52.434;13.206;2023-02-03T05:07:59;26.30;;;13.40;;
20306;SDS011;10312;52.434;13.206;2023-02-03T05:10:25;27.65;;;14.60;;
20306;SDS011;10312;52.434;13.206;2023-02-03T05:12:52;25.40;;;14.43;;
20306;SDS011;10312;52.434;13.206;2023-02-03T05:15:19;24.15;;;14.05;;
20306;SDS011;10312;52.434;13.206;2023-02-03T05:17:46;28.25;;;16.10;;
20306;SDS011;10312;52.434;13.206;2023-02-03T05:20:12;29.48;;;16.00;;
20306;SDS011;10312;52.434;13.206;2023-02-03T05:22:45;30.40;;;16.75;;
20306;SDS011;10312;52.434;13.206;2023-02-03T05:25:12;42.45;;;18.02;;
20306;SDS011;10312;52.434;13.206;2023-02-03T05:27:39;34.60;;;17.65;;
20306;SDS011;10312;52.434;13.206;2023-02-03T05:30:06;35.78;;;18.60;;
20306;SDS011;10312;52.434;13.206;2023-02-03T05:32:34;35.65;;;18.30;;
20306;SDS011;10312;52.434;13.206;2023-02-03T05:35:01;35.10;;;18.33;;
20306;SDS011;10312;52.434;13.206;2023-02-03T05:37:30;33.63;;;18.08;;
20306;SDS011;10312;52.434;13.206;2023-02-03T05:39:57;35.92;;;18.85;;
20306;SDS011;10312;52.434;13.206;2023-02-03T05:42:47;34.85;;;18.13;;
20306;SDS011;10312;52.434;13.206;2023-02-03T05:45:14;38.42;;;19.73;;
20306;SDS011;10312;52.434;13.206;2023-02-03T05:47:41;37.15;;;19.02;;
20306;SDS011;10312;52.434;13.206;2023-02-03T05:50:08;37.03;;;19.73;;
20306;SDS011;10312;52.434;13.206;2023-02-03T05:52:35;35.90;;;18.77;;
20306;SDS011;10312;52.434;13.206;2023-02-03T05:55:01;35.40;;;18.95;;
20306;SDS011;10312;52.434;13.206;2023-02-03T05:57:28;40.30;;;20.02;;
20306;SDS011;10312;52.434;13.206;2023-02-03T05:59:57;35.83;;;19.75;;
20306;SDS011;10312;52.434;13.206;2023-02-03T06:02:24;34.28;;;18.80;;
20306;SDS011;10312;52.434;13.206;2023-02-03T06:04:50;36.65;;;19.38;;
20306;SDS011;10312;52.434;13.206;2023-02-03T06:07:17;42.40;;;19.63;;
20306;SDS011;10312;52.434;13.206;2023-02-03T06:09:44;36.53;;;19.40;;
20306;SDS011;10312;52.434;13.206;2023-02-03T06:12:10;40.05;;;19.45;;
20306;SDS011;10312;52.434;13.206;2023-02-03T06:14:37;36.05;;;18.80;;
20306;SDS011;10312;52.434;13.206;2023-02-03T06:17:04;38.00;;;19.37;;
20306;SDS011;10312;52.434;13.206;2023-02-03T06:19:30;38.63;;;19.98;;
20306;SDS011;10312;52.434;13.206;2023-02-03T06:21:57;36.20;;;18.98;;
20306;SDS011;10312;52.434;13.206;2023-02-03T06:24:24;40.13;;;20.48;;
20306;SDS011;10312;52.434;13.206;2023-02-03T06:26:50;37.78;;;19.45;;
20306;SDS011;10312;52.434;13.206;2023-02-03T06:29:17;35.35;;;18.85;;
20306;SDS011;10312;52.434;13.206;2023-02-03T06:31:44;35.80;;;18.63;;
20306;SDS011;10312;52.434;13.206;2023-02-03T06:34:11;37.60;;;18.65;;
20306;SDS011;10312;52.434;13.206;2023-02-03T06:36:37;41.45;;;19.33;;
20306;SDS011;10312;52.434;13.206;2023-02-03T06:39:04;29.13;;;17.98;;
20306;SDS011;10312;52.434;13.206;2023-02-03T06:41:31;34.22;;;18.25;;
20306;SDS011;10312;52.434;13.206;2023-02-03T06:43:58;42.55;;;19.20;;
20306;SDS011;10312;52.434;13.206;2023-02-03T06:46:25;37.08;;;19.00;;
20306;SDS011;10312;52.434;13.206;2023-02-03T06:48:55;35.75;;;18.17;;
20306;SDS011;10312;52.434;13.206;2023-02-03T06:51:22;34.22;;;19.08;;
20306;SDS011;10312;52.434;13.206;2023-02-03T06:53:50;31.58;;;18.02;;
20306;SDS011;10312;52.434;13.206;2023-02-03T06:56:16;33.60;;;18.42;;
20306;SDS011;10312;52.434;13.206;2023-02-03T06:58:43;34.47;;;18.38;;
20306;SDS011;10312;52.434;13.206;2023-02-03T07:01:10;33.97;;;19.35;;
20306;SDS011;10312;52.434;13.206;2023-02-03T07:03:37;33.75;;;18.33;;
20306;SDS011;10312;52.434;13.206;2023-02-03T07:06:03;32.83;;;18.65;;
20306;SDS011;10312;52.434;13.206;2023-02-03T07:08:30;37.72;;;19.10;;
20306;SDS011;10312;52.434;13.206;2023-02-03T07:10:57;30.83;;;18.52;;
20306;SDS011;10312;52.434;13.206;2023-02-03T07:13:24;32.80;;;17.77;;
20306;SDS011;10312;52.434;13.206;2023-02-03T07:15:51;33.85;;;18.77;;
20306;SDS011;10312;52.434;13.206;2023-02-03T07:18:18;29.85;;;17.50;;
20306;SDS011;10312;52.434;13.206;2023-02-03T07:21:09;31.70;;;17.60;;
20306;SDS011;10312;52.434;13.206;2023-02-03T07:23:36;33.88;;;17.20;;
20306;SDS011;10312;52.434;13.206;2023-02-03T07:26:03;32.35;;;18.13;;
20306;SDS011;10312;52.434;13.206;2023-02-03T07:28:31;34.53;;;18.88;;
20306;SDS011;10312;52.434;13.206;2023-02-03T07:31:01;33.25;;;17.40;;
20306;SDS011;10312;52.434;13.206;2023-02-03T07:33:30;28.55;;;17.48;;
20306;SDS011;10312;52.434;13.206;2023-02-03T07:35:58;39.42;;;19.05;;
20306;SDS011;10312;52.434;13.206;2023-02-03T07:38:26;32.42;;;16.35;;
20306;SDS011;10312;52.434;13.206;2023-02-03T07:40:56;32.53;;;16.98;;
20306;SDS011;10312;52.434;13.206;2023-02-03T07:43:22;31.00;;;17.17;;
20306;SDS011;10312;52.434;13.206;2023-02-03T07:45:49;26.63;;;16.25;;
20306;SDS011;10312;52.434;13.206;2023-02-03T07:48:16;27.73;;;16.50;;
20306;SDS011;10312;52.434;13.206;2023-02-03T07:50:43;33.28;;;17.90;;
20306;SDS011;10312;52.434;13.206;2023-02-03T07:53:11;24.33;;;15.13;;
20306;SDS011;10312;52.434;13.206;2023-02-03T07:55:38;25.90;;;14.90;;
20306;SDS011;10312;52.434;13.206;2023-02-03T07:58:05;27.17;;;15.30;;
20306;SDS011;10312;52.434;13.206;2023-02-03T08:00:32;24.83;;;15.55;;
20306;SDS011;10312;52.434;13.206;2023-02-03T08:02:59;23.35;;;13.90;;
20306;SDS011;10312;52.434;13.206;2023-02-03T08:05:25;24.92;;;13.73;;
20306;SDS011;10312;52.434;13.206;2023-02-03T08:07:52;19.08;;;13.65;;
20306;SDS011;10312;52.434;13.206;2023-02-03T08:10:22;22.17;;;13.85;;
20306;SDS011;10312;52.434;13.206;2023-02-03T08:12:51;24.48;;;13.10;;
20306;SDS011;10312;52.434;13.206;2023-02-03T08:15:19;20.90;;;12.15;;
20306;SDS011;10312;52.434;13.206;2023-02-03T08:17:46;19.92;;;12.65;;
20306;SDS011;10312;52.434;13.206;2023-02-03T08:20:15;19.17;;;11.85;;
20306;SDS011;10312;52.434;13.206;2023-02-03T08:22:42;20.58;;;12.40;;
20306;SDS011;10312;52.434;13.206;2023-02-03T08:25:09;18.13;;;12.02;;
20306;SDS011;10312;52.434;13.206;2023-02-03T08:27:36;17.35;;;11.63;;
20306;SDS011;10312;52.434;13.206;2023-02-03T08:30:03;15.43;;;11.13;;
20306;SDS011;10312;52.434;13.206;2023-02-03T08:32:31;18.50;;;10.63;;
20306;SDS011;10312;52.434;13.206;2023-02-03T08:34:58;19.23;;;11.38;;
20306;SDS011;10312;52.434;13.206;2023-02-03T08:37:24;18.90;;;12.38;;
20306;SDS011;10312;52.434;13.206;2023-02-03T08:39:51;16.80;;;10.95;;
20306;SDS011;10312;52.434;13.206;2023-02-03T08:42:21;15.38;;;10.75;;
20306;SDS011;10312;52.434;13.206;2023-02-03T08:44:47;18.00;;;11.40;;
20306;SDS011;10312;52.434;13.206;2023-02-03T08:47:14;20.00;;;11.35;;
20306;SDS011;10312;52.434;13.206;2023-02-03T08:49:41;17.08;;;10.95;;
20306;SDS011;10312;52.434;13.206;2023-02-03T08:52:09;15.40;;;10.63;;
20306;SDS011;10312;52.434;13.206;2023-02-03T08:54:37;15.77;;;10.63;;
20306;SDS011;10312;52.434;13.206;2023-02-03T08:57:04;14.38;;;10.10;;
20306;SDS011;10312;52.434;13.206;2023-02-03T08:59:31;19.83;;;10.80;;
20306;SDS011;10312;52.434;13.206;2023-02-03T09:02:02;17.98;;;10.40;;
20306;SDS011;10312;52.434;13.206;2023-02-03T09:04:29;16.45;;;10.07;;
20306;SDS011;10312;52.434;13.206;2023-02-03T09:06:59;14.88;;;9.82;;
20306;SDS011;10312;52.434;13.206;2023-02-03T09:09:27;14.82;;;9.40;;
20306;SDS011;10312;52.434;13.206;2023-02-03T09:11:54;16.58;;;9.55;;
20306;SDS011;10312;52.434;13.206;2023-02-03T09:14:28;16.27;;;9.32;;
20306;SDS011;10312;52.434;13.206;2023-02-03T09:16:55;15.98;;;9.38;;
20306;SDS011;10312;52.434;13.206;2023-02-03T09:19:21;13.82;;;8.73;;
20306;SDS011;10312;52.434;13.206;2023-02-03T09:21:48;16.25;;;9.10;;
20306;SDS011;10312;52.434;13.206;2023-02-03T09:24:15;16.45;;;9.45;;
20306;SDS011;10312;52.434;13.206;2023-02-03T09:26:43;14.75;;;8.50;;
20306;SDS011;10312;52.434;13.206;2023-02-03T09:29:10;12.80;;;8.10;;
20306;SDS011;10312;52.434;13.206;2023-02-03T09:31:37;12.68;;;8.02;;
20306;SDS011;10312;52.434;13.206;2023-02-03T09:34:04;11.70;;;7.72;;
20306;SDS011;10312;52.434;13.206;2023-02-03T09:36:31;13.95;;;8.70;;
20306;SDS011;10312;52.434;13.206;2023-02-03T09:38:58;14.35;;;8.13;;
20306;SDS011;10312;52.434;13.206;2023-02-03T09:46:29;12.63;;;7.68;;
20306;SDS011;10312;52.434;13.206;2023-02-03T09:49:07;16.52;;;7.88;;
20306;SDS011;10312;52.434;13.206;2023-02-03T09:51:45;16.05;;;7.65;;
20306;SDS011;10312;52.434;13.206;2023-02-03T09:54:15;13.93;;;7.78;;
20306;SDS011;10312;52.434;13.206;2023-02-03T09:56:45;13.93;;;8.30;;
20306;SDS011;10312;52.434;13.206;2023-02-03T09:59:18;12.35;;;7.15;;
20306;SDS011;10312;52.434;13.206;2023-02-03T10:01:49;11.35;;;7.35;;
20306;SDS011;10312;52.434;13.206;2023-02-03T10:07:04;11.90;;;6.32;;
20306;SDS011;10312;52.434;13.206;2023-02-03T10:10:57;9.55;;;5.47;;
20306;SDS011;10312;52.434;13.206;2023-02-03T10:15:57;10.77;;;5.63;;
20306;SDS011;10312;52.434;13.206;2023-02-03T10:18:32;12.32;;;5.32;;
20306;SDS011;10312;52.434;13.206;2023-02-03T10:21:11;10.70;;;5.53;;
20306;SDS011;10312;52.434;13.206;2023-02-03T10:23:41;13.15;;;4.90;;
20306;SDS011;10312;52.434;13.206;2023-02-03T10:26:11;9.07;;;4.90;;
20306;SDS011;10312;52.434;13.206;2023-02-03T10:28:55;7.68;;;3.97;;
20306;SDS011;10312;52.434;13.206;2023-02-03T10:31:23;7.03;;;4.43;;
20306;SDS011;10312;52.434;13.206;2023-02-03T10:34:00;6.45;;;4.13;;
20306;SDS011;10312;52.434;13.206;2023-02-03T10:37:19;8.57;;;4.47;;
20306;SDS011;10312;52.434;13.206;2023-02-03T10:42:07;9.73;;;3.80;;
20306;SDS011;10312;52.434;13.206;2023-02-03T10:44:35;8.30;;;4.10;;
20306;SDS011;10312;52.434;13.206;2023-02-03T10:49:51;8.40;;;3.92;;
20306;SDS011;10312;52.434;13.206;2023-02-03T10:52:26;5.90;;;3.15;;
20306;SDS011;10312;52.434;13.206;2023-02-03T10:54:57;9.52;;;3.60;;
20306;SDS011;10312;52.434;13.206;2023-02-03T10:57:25;4.43;;;2.45;;
20306;SDS011;10312;52.434;13.206;2023-02-03T11:00:02;6.97;;;1.70;;
20306;SDS011;10312;52.434;13.206;2023-02-03T11:02:31;6.32;;;1.63;;
20306;SDS011;10312;52.434;13.206;2023-02-03T11:07:47;9.13;;;2.05;;
20306;SDS011;10312;52.434;13.206;2023-02-03T11:15:58;9.38;;;2.38;;
20306;SDS011;10312;52.434;13.206;2023-02-03T11:20:59;13.25;;;1.83;;
20306;SDS011;10312;52.434;13.206;2023-02-03T11:23:25;16.85;;;2.03;;
20306;SDS011;10312;52.434;13.206;2023-02-03T11:25:52;14.45;;;2.38;;
20306;SDS011;10312;52.434;13.206;2023-02-03T11:28:19;9.23;;;2.15;;
20306;SDS011;10312;52.434;13.206;2023-02-03T11:30:53;10.93;;;1.70;;
20306;SDS011;10312;52.434;13.206;2023-02-03T11:33:22;12.00;;;2.20;;
20306;SDS011;10312;52.434;13.206;2023-02-03T11:35:57;11.15;;;1.90;;
20306;SDS011;10312;52.434;13.206;2023-02-03T11:38:29;10.60;;;2.03;;
20306;SDS011;10312;52.434;13.206;2023-02-03T11:41:02;11.10;;;2.10;;
20306;SDS011;10312;52.434;13.206;2023-02-03T11:43:28;10.60;;;1.90;;
20306;SDS011;10312;52.434;13.206;2023-02-03T11:46:00;13.75;;;2.10;;
20306;SDS011;10312;52.434;13.206;2023-02-03T11:48:42;12.95;;;2.25;;
20306;SDS011;10312;52.434;13.206;2023-02-03T11:51:23;11.68;;;1.95;;
20306;SDS011;10312;52.434;13.206;2023-02-03T11:54:12;18.98;;;2.33;;
20306;SDS011;10312;52.434;13.206;2023-02-03T12:07:33;20.88;;;3.58;;
20306;SDS011;10312;52.434;13.206;2023-02-03T12:12:39;15.73;;;2.60;;
20306;SDS011;10312;52.434;13.206;2023-02-03T12:15:46;22.67;;;3.47;;
20306;SDS011;10312;52.434;13.206;2023-02-03T12:18:28;19.52;;;2.90;;
20306;SDS011;10312;52.434;13.206;2023-02-03T12:24:14;19.63;;;2.83;;
20306;SDS011;10312;52.434;13.206;2023-02-03T12:26:54;17.77;;;3.00;;
20306;SDS011;10312;52.434;13.206;2023-02-03T12:29:29;22.52;;;3.53;;
20306;SDS011;10312;52.434;13.206;2023-02-03T12:34:55;22.13;;;3.25;;
20306;SDS011;10312;52.434;13.206;2023-02-03T12:37:30;18.60;;;3.35;;
20306;SDS011;10312;52.434;13.206;2023-02-03T12:40:13;18.88;;;3.20;;
20306;SDS011;10312;52.434;13.206;2023-02-03T12:42:50;20.92;;;3.20;;
20306;SDS011;10312;52.434;13.206;2023-02-03T12:45:29;23.48;;;3.47;;
20306;SDS011;10312;52.434;13.206;2023-02-03T12:48:05;22.50;;;3.47;;
20306;SDS011;10312;52.434;13.206;2023-02-03T12:50:40;22.25;;;3.63;;
20306;SDS011;10312;52.434;13.206;2023-02-03T12:53:26;21.55;;;3.28;;
20306;SDS011;10312;52.434;13.206;2023-02-03T12:58:44;24.02;;;4.05;;
20306;SDS011;10312;52.434;13.206;2023-02-03T13:01:22;27.33;;;4.45;;
20306;SDS011;10312;52.434;13.206;2023-02-03T13:09:33;22.63;;;3.80;;
20306;SDS011;10312;52.434;13.206;2023-02-03T13:12:05;19.67;;;3.22;;
20306;SDS011;10312;52.434;13.206;2023-02-03T13:14:38;20.83;;;2.88;;
20306;SDS011;10312;52.434;13.206;2023-02-03T13:19:55;13.30;;;1.83;;
20306;SDS011;10312;52.434;13.206;2023-02-03T13:22:24;8.35;;;1.40;;
20306;SDS011;10312;52.434;13.206;2023-02-03T13:25:08;9.20;;;1.50;;
20306;SDS011;10312;52.434;13.206;2023-02-03T13:36:06;11.00;;;2.05;;
20306;SDS011;10312;52.434;13.206;2023-02-03T13:44:12;8.15;;;1.45;;
20306;SDS011;10312;52.434;13.206;2023-02-03T13:46:45;15.55;;;2.15;;
20306;SDS011;10312;52.434;13.206;2023-02-03T13:49:23;14.85;;;2.30;;
20306;SDS011;10312;52.434;13.206;2023-02-03T13:51:52;17.50;;;2.55;;
20306;SDS011;10312;52.434;13.206;2023-02-03T13:54:42;13.18;;;2.55;;
20306;SDS011;10312;52.434;13.206;2023-02-03T13:57:19;15.88;;;3.15;;
20306;SDS011;10312;52.434;13.206;2023-02-03T13:59:47;11.63;;;2.20;;
20306;SDS011;10312;52.434;13.206;2023-02-03T14:17:54;19.63;;;3.53;;
20306;SDS011;10312;52.434;13.206;2023-02-03T14:22:58;24.20;;;4.82;;
20306;SDS011;10312;52.434;13.206;2023-02-03T14:25:39;25.83;;;3.22;;
20306;SDS011;10312;52.434;13.206;2023-02-03T14:28:08;25.98;;;4.15;;
20306;SDS011;10312;52.434;13.206;2023-02-03T14:33:43;36.38;;;4.78;;
20306;SDS011;10312;52.434;13.206;2023-02-03T14:38:53;28.40;;;4.95;;
20306;SDS011;10312;52.434;13.206;2023-02-03T14:47:15;30.45;;;4.25;;
20306;SDS011;10312;52.434;13.206;2023-02-03T14:53:01;30.85;;;4.70;;
20306;SDS011;10312;52.434;13.206;2023-02-03T14:55:49;27.80;;;5.35;;
20306;SDS011;10312;52.434;13.206;2023-02-03T15:01:02;28.65;;;4.47;;
20306;SDS011;10312;52.434;13.206;2023-02-03T15:03:30;23.00;;;4.80;;
20306;SDS011;10312;52.434;13.206;2023-02-03T15:05:58;28.88;;;4.93;;
20306;SDS011;10312;52.434;13.206;2023-02-03T15:13:50;29.10;;;4.10;;
20306;SDS011;10312;52.434;13.206;2023-02-03T15:16:18;25.45;;;4.28;;
20306;SDS011;10312;52.434;13.206;2023-02-03T15:18:51;16.67;;;3.88;;
20306;SDS011;10312;52.434;13.206;2023-02-03T15:21:19;21.20;;;3.80;;
20306;SDS011;10312;52.434;13.206;2023-02-03T15:23:46;23.42;;;4.53;;
20306;SDS011;10312;52.434;13.206;2023-02-03T15:26:18;19.02;;;3.97;;
20306;SDS011;10312;52.434;13.206;2023-02-03T15:28:53;25.23;;;3.95;;
20306;SDS011;10312;52.434;13.206;2023-02-03T15:34:04;21.52;;;3.90;;
20306;SDS011;10312;52.434;13.206;2023-02-03T15:36:38;29.30;;;4.72;;
20306;SDS011;10312;52.434;13.206;2023-02-03T15:39:20;21.30;;;4.35;;
20306;SDS011;10312;52.434;13.206;2023-02-03T15:41:59;22.15;;;3.78;;
20306;SDS011;10312;52.434;13.206;2023-02-03T15:46:54;25.38;;;3.47;;
20306;SDS011;10312;52.434;13.206;2023-02-03T15:49:24;17.08;;;3.60;;
20306;SDS011;10312;52.434;13.206;2023-02-03T15:51:57;22.33;;;4.00;;
20306;SDS011;10312;52.434;13.206;2023-02-03T15:54:27;23.63;;;4.25;;
20306;SDS011;10312;52.434;13.206;2023-02-03T15:57:18;21.42;;;2.72;;
20306;SDS011;10312;52.434;13.206;2023-02-03T15:59:57;26.13;;;3.25;;
20306;SDS011;10312;52.434;13.206;2023-02-03T16:02:29;21.48;;;3.30;;
20306;SDS011;10312;52.434;13.206;2023-02-03T16:05:12;20.35;;;3.40;;
20306;SDS011;10312;52.434;13.206;2023-02-03T16:07:51;23.17;;;3.72;;
20306;SDS011;10312;52.434;13.206;2023-02-03T16:10:29;27.40;;;4.38;;
20306;SDS011;10312;52.434;13.206;2023-02-03T16:15:59;20.70;;;3.28;;
20306;SDS011;10312;52.434;13.206;2023-02-03T16:18:34;22.23;;;3.80;;
20306;SDS011;10312;52.434;13.206;2023-02-03T16:21:05;23.73;;;3.72;;
20306;SDS011;10312;52.434;13.206;2023-02-03T16:23:31;24.55;;;3.30;;
20306;SDS011;10312;52.434;13.206;2023-02-03T16:28:31;14.90;;;3.38;;
20306;SDS011;10312;52.434;13.206;2023-02-03T16:31:17;20.42;;;3.58;;
20306;SDS011;10312;52.434;13.206;2023-02-03T16:34:17;29.13;;;3.47;;
20306;SDS011;10312;52.434;13.206;2023-02-03T16:37:12;22.13;;;4.05;;
20306;SDS011;10312;52.434;13.206;2023-02-03T16:40:04;22.02;;;3.50;;
20306;SDS011;10312;52.434;13.206;2023-02-03T16:42:50;23.45;;;4.30;;
20306;SDS011;10312;52.434;13.206;2023-02-03T16:45:35;20.85;;;4.13;;
20306;SDS011;10312;52.434;13.206;2023-02-03T16:48:21;24.95;;;4.50;;
20306;SDS011;10312;52.434;13.206;2023-02-03T16:51:10;26.52;;;3.90;;
20306;SDS011;10312;52.434;13.206;2023-02-03T16:53:42;29.23;;;4.10;;
20306;SDS011;10312;52.434;13.206;2023-02-03T16:56:11;21.90;;;3.85;;